AirNav   Everest Fuels
 
 993 users online  

0MI8 Oakwood Southshore Medical Center Heliport
Trenton, Michigan, USA

GOING TO TRENTON?


FAA INFORMATION EFFECTIVE 30 JANUARY 2020

Location

FAA Identifier: 0MI8
Lat/Long: 42-06-57.5100N 083-12-52.8100W
42-06.958500N 083-12.880167W
42.1159750,-83.2146694
(estimated)
Elevation: 589 ft. / 180 m (estimated)
From city: 3 miles NE of TRENTON, MI
Time zone: UTC -5 (UTC -4 during Daylight Saving Time)
Zip code: 48183

Heliport Operations

Heliport use: Private use. Permission required prior to landing
Activation date: 10/2016
Control tower: no
ARTCC: CLEVELAND CENTER
FSS: LANSING FLIGHT SERVICE STATION
Attendance: 
Segmented circle: no

Heliport Communications

WX AWOS-3 at ONZ (2.6 nm SE): 119.675 (734-692-9686)
WX ASOS at DTW (8 nm NW): 133.675 (734-955-5015)
WX AWOS-3 at TTF (14 nm SW): 119.075 (734-384-0259)
WX ASOS at YIP (16 nm NW): 132.35 (734-961-6843)
WX ASOS at DET (20 nm NE): PHONE 313-371-9696

Nearby radio navigation aids

VOR radial/distance  VOR name  Freq  Var
DXOr137/8.9DETROIT VOR/DME113.4006W
CRLr072/11.6CARLETON VOR/DME115.7003W
YQGr251/18.9WINDSOR VOR/DME113.8006W
SVMr139/24.3SALEM VORTAC114.3003W

 
NDB name  Hdg/Dist  Freq  Var  ID
GROSSE ILE295/2.941907WRYS .-. -.-- ...
TECUMSEH087/30.323906WTCU - -.-. ..-
PORT CLINTON344/39.042307WPCW .--. -.-. .--

Heliport Services

Runway Information

Helipad H1

Dimensions: 48 x 48 ft. / 15 x 15 m
Surface: concrete
Traffic pattern: leftleft

Heliport Ownership and Management from official FAA records

Ownership: Privately-owned
Owner: OAKWOOD SOUTHSHORE MEDICAL CENTER
5450 FORT ST.
TRENTON, MI 48183
Phone 784-671-3817
Manager: MATT GEORGE
5450 FORT ST.
TRENTON, MI 48183
Phone 734-6713817

Additional Remarks

FOR CD CTC CLEVELAND ARTCC AT 440-774-0490.

Instrument Procedures

There are no published instrument procedures at 0MI8.

Some nearby airports with instrument procedures:

KONZ - Grosse Ile Municipal Airport (3 nm SE)
KDTW - Detroit Metropolitan Wayne County Airport (8 nm NW)
KTTF - Custer Airport (14 nm SW)
KYIP - Willow Run Airport (16 nm NW)
1D2 - Canton-Plymouth-Mettetal Airport (18 nm NW)
KDET - Coleman A Young Municipal Airport (20 nm NE)
 
Loc | Ops | Rwys | IFR | FBO | Links
Com | Nav | Svcs | Stats | Notes
Aerial photo
No photo
 
Airport distance calculator
Flying to Oakwood Southshore Medical Center Heliport? Find the distance to fly.

From to 0MI8

Sunrise and sunset
Times for 19-Feb-2020
 Local
(UTC-5)
 Zulu
(UTC)
Morning civil twilight06:5611:56
Sunrise07:2412:24
Sunset18:0923:09
Evening civil twilight18:3823:38

Current date and time
Zulu (UTC)  19-Feb-2020 13:42:14
Local (UTC-5)  19-Feb-2020 08:42:14
 
METAR
KONZ 
3nm E 
191315Z AUTO 33010KT 10SM CLR M05/M11 A3046 RMK AO2 T10471110
KDTW 
9nm NW 
191253Z 31010KT 10SM FEW029 FEW220 M06/M12 A3045 RMK AO2 SLP322 T10561117
KTTF 
14nm SW 
191316Z AUTO 32012KT 10SM CLR M05/M13 A3047 RMK AO2 T10501127
CXHA 
15nm E 
191300Z AUTO 31005KT M05/M10 RMK AO1 SLP325 T10481102 53033
CYQG 
15nm NE 
191300Z AUTO 33012G18KT 9SM CLR M05/M12 A3045 RMK SLP322
KYIP 
16nm NW 
191253Z 32012KT 10SM CLR M05/M12 A3045 RMK AO2 SLP320 T10501122
KDET 
19nm NE 
191253Z 32011G18KT 10SM CLR M06/M12 A3045 RMK AO2 SLP319 T10561122
TAF
KDTW 
9nm NW 
191135Z 1912/2018 30013KT P6SM SCT040 FM200100 33007KT P6SM OVC100 FM201300 35005KT P6SM SCT040
CYQG 
15nm NE 
191141Z 1912/2012 31013G23KT P6SM SCT030 TEMPO 1912/1914 BKN020 FM191500 30010KT P6SM FEW025 RMK FCST BASED ON AUTO OBS. NXT FCST BY 191800Z
KYIP 
16nm NW 
190535Z 1906/2006 28009KT P6SM SKC FM190700 29010KT P6SM SCT028 BKN035 FM191200 28010KT P6SM SKC FM200000 27008KT P6SM SCT100 BKN250
KDET 
19nm NE 
191135Z 1912/2012 30013KT P6SM SCT040 FM200100 33007KT P6SM OVC100
NOTAMs
Click for the latest NOTAMs
NOTAMs are issued by the DoD/FAA and will open in a separate window not controlled by AirNav.

 

 
 

Would you like to see your business listed on this page?

 If your business provides an interesting product or service to pilots, flight crews, aircraft, or users of the Oakwood Southshore Medical Center Heliport, you should consider listing it here.  To start the listing process, click on the button below
 
Add a business
 

Other Pages about Oakwood Southshore Medical Center Heliport

Update a link
 
Copyright © AirNav, LLC. All rights reserved. Privacy Policy  Contact